Terminal Aerodrome Forecast
Issued by NWS

Home | Current Version | Previous Version | Text Only | Print | Product List | Glossary On
Versions: 1 2 3 4 5 6 7 8 9 10 11 12 13 14 15 16 17 18
299
FTUS44 KCRP 210640 AAA
TAFALI
TAF AMD
KALI 210640Z 2107/2206 13015KT 5SM BR VCSH BKN004 BKN080
      TEMPO 2107/2110 SCT004 BKN080
     FM211000 14007KT 3SM BR VCSH OVC005
     FM211600 18010KT P6SM BKN015
     FM211900 04012G20KT P6SM VCTS BKN015CB OVC025
     FM220200 02014G22KT P6SM VCSH OVC015=

USA.gov is the U.S. government's official web portal to all federal, state and local government web resources and services.